Terminal Aerodrome Forecast
Issued by NWS Austin/San Antonio, TX

Home | Current Version | Previous Version | Text Only | Print | Product List | Glossary On
Versions: 1 2 3 4 5 6 7 8 9 10 11 12 13 14 15 16 17 18 19 20 21 22 23 24 25
000
FTUS44 KEWX 181901 AAA
TAFSAT
TAF AMD
KSAT 181901Z 1819/1924 10006KT 4SM BR OVC003
     FM182000 12007KT 6SM BR SCT007 BKN012
     FM182100 13010KT P6SM SCT025 BKN250
     FM190400 15011KT P6SM OVC007
     FM190800 16010KT 2SM -DZ BR OVC004
     FM191500 17011KT P6SM BKN007
     FM191800 16013KT P6SM BKN015=

USA.gov is the U.S. government's official web portal to all federal, state and local government web resources and services.